Terminal Aerodrome Forecast
Issued by NWS

Home | Current Version | Previous Version | Text Only | Print | Product List | Glossary On
Versions: 1 2 3 4 5 6 7 8 9 10 11 12 13
763
FTUS42 KMLB 130524
TAFISM
TAF
KISM 130524Z 1306/1406 31008KT P6SM SKC
     FM131300 33006KT P6SM SKC
     FM131700 29007KT P6SM SKC
     FM140000 26003KT P6SM SKC=

USA.gov is the U.S. government's official web portal to all federal, state and local government web resources and services.